Time;durP1;ratioP1;P1;durP2;ratioP2;P2;SDS_P1;SDS_P2;PMS_P1;PMS_P2;Temp;Humidity;BMP_temperature;BMP_pressure;BME280_temperature;BME280_humidity;BME280_pressure;Samples;Min_cycle;Max_cycle;Signal;HPM_P1;HPM_P2
2022/11/16 00:00:59;;;;;;;66.40;42.80;;;;;;;8.74;100.00;99890.56;5069611;28;20028;-71
2022/11/16 00:03:24;;;;;;;65.20;41.63;;;;;;;9.16;100.00;99916.66;5070682;28;20033;-69
2022/11/16 00:05:55;;;;;;;67.85;44.15;;;;;;;9.18;100.00;99926.75;5069294;28;20078;-71
2022/11/16 00:08:20;;;;;;;68.30;44.40;;;;;;;9.01;100.00;99928.84;5070536;28;20055;-71
2022/11/16 00:10:46;;;;;;;68.55;42.45;;;;;;;8.83;100.00;99922.50;5070558;28;20051;-71
2022/11/16 00:13:11;;;;;;;68.72;44.05;;;;;;;8.92;100.00;99908.75;5070089;28;20070;-70
2022/11/16 00:15:37;;;;;;;62.60;41.03;;;;;;;8.87;100.00;99887.75;5069973;28;20029;-71
2022/11/16 00:18:02;;;;;;;64.68;42.30;;;;;;;8.57;100.00;99862.25;5069072;28;20411;-71
2022/11/16 00:20:28;;;;;;;64.32;43.05;;;;;;;8.66;100.00;99872.16;5069629;28;20029;-70
2022/11/16 00:22:53;;;;;;;69.53;44.22;;;;;;;8.71;100.00;99908.34;5074558;28;20475;-71
2022/11/16 00:25:18;;;;;;;67.55;44.05;;;;;;;8.60;100.00;99872.28;5073143;28;20082;-71
2022/11/16 00:27:44;;;;;;;72.68;45.28;;;;;;;8.79;100.00;99899.78;5072891;28;20115;-71
2022/11/16 00:30:10;;;;;;;69.85;45.10;;;;;;;8.64;100.00;99899.22;5074439;28;20474;-72
2022/11/16 00:32:35;;;;;;;70.38;44.20;;;;;;;8.63;100.00;99874.78;5074548;28;20383;-71
2022/11/16 00:35:01;;;;;;;72.15;45.42;;;;;;;8.76;100.00;99898.13;5073809;28;20044;-71
2022/11/16 00:37:26;;;;;;;75.38;46.10;;;;;;;8.49;100.00;99897.03;5074470;28;20063;-71
2022/11/16 00:39:51;;;;;;;72.95;44.15;;;;;;;8.32;100.00;99850.13;5073620;28;20040;-71
2022/11/16 00:42:17;;;;;;;69.45;46.15;;;;;;;8.31;100.00;99838.31;5074108;28;20474;-71
2022/11/16 00:44:42;;;;;;;75.65;46.55;;;;;;;8.17;100.00;99843.66;5072777;28;20025;-70
2022/11/16 00:47:07;;;;;;;72.75;45.75;;;;;;;8.43;100.00;99841.44;5072669;28;20025;-71
2022/11/16 00:49:33;;;;;;;68.13;44.53;;;;;;;8.66;100.00;99872.16;5074029;28;20415;-71
2022/11/16 00:51:58;;;;;;;72.88;45.90;;;;;;;8.24;100.00;99837.56;5072546;28;20166;-71
2022/11/16 00:54:24;;;;;;;69.28;44.85;;;;;;;8.32;100.00;99850.13;5073773;28;20040;-71
2022/11/16 00:56:49;;;;;;;77.05;46.42;;;;;;;8.42;100.00;99856.66;5073745;28;20040;-72
2022/11/16 00:59:15;;;;;;;73.38;46.10;;;;;;;8.28;100.00;99831.63;5073708;28;20036;-72
2022/11/16 01:01:40;;;;;;;72.18;44.85;;;;;;;8.48;100.00;99861.59;5073996;28;20040;-70
2022/11/16 01:04:05;;;;;;;78.35;46.50;;;;;;;8.12;100.00;99825.16;5073800;28;20033;-71
2022/11/16 01:06:31;;;;;;;76.95;47.63;;;;;;;8.22;100.00;99851.97;5073472;28;20036;-70
2022/11/16 01:08:56;;;;;;;74.75;47.22;;;;;;;8.03;100.00;99795.00;5072087;28;20032;-71
2022/11/16 01:14:07;;;;;;;81.05;49.65;;;;;;;8.05;100.00;99840.53;5073787;28;20124;-71
2022/11/16 01:16:33;;;;;;;79.38;50.63;;;;;;;8.02;100.00;99802.63;5073906;28;20024;-71
2022/11/16 01:18:59;;;;;;;88.45;51.40;;;;;;;8.40;100.00;99841.50;5073602;28;20028;-72
2022/11/16 01:21:24;;;;;;;80.15;49.45;;;;;;;7.92;100.00;99844.16;5072209;28;20119;-71
2022/11/16 01:23:50;;;;;;;84.38;50.00;;;;;;;8.18;100.00;99836.91;5073392;28;20403;-71
2022/11/16 01:26:16;;;;;;;80.80;48.97;;;;;;;8.01;100.00;99791.66;5071988;28;20029;-72
2022/11/16 01:28:41;;;;;;;80.35;48.88;;;;;;;7.92;100.00;99807.06;5073039;28;20041;-71
2022/11/16 01:31:08;;;;;;;82.93;51.03;;;;;;;8.02;100.00;99831.31;5073029;28;20031;-71
2022/11/16 01:33:34;;;;;;;82.18;49.88;;;;;;;7.89;100.00;99789.38;5072786;28;20564;-71
2022/11/16 01:35:59;;;;;;;80.97;48.92;;;;;;;7.94;100.00;99785.06;5072680;28;20040;-71
2022/11/16 01:38:25;;;;;;;83.85;51.63;;;;;;;8.13;100.00;99815.88;5073005;28;20036;-70
2022/11/16 01:40:50;;;;;;;86.03;51.38;;;;;;;8.06;100.00;99817.69;5073185;28;20580;-71
2022/11/16 01:43:22;;;;;;;89.15;51.30;;;;;;;7.97;100.00;99802.72;5073011;28;20028;-71
2022/11/16 01:45:48;;;;;;;;;;;;;;;7.97;100.00;99817.06;5071824;28;20039;-71
2022/11/16 01:48:17;;;;;;;80.95;50.40;;;;;;;8.18;100.00;99799.72;5072897;28;19913;-71
2022/11/16 01:50:44;;;;;;;84.60;52.00;;;;;;;7.80;100.00;99784.53;5072571;28;20039;-71
2022/11/16 01:53:11;;;;;;;83.22;51.70;;;;;;;7.93;100.00;99807.88;5072629;28;20044;-70
2022/11/16 01:55:38;;;;;;;85.82;52.33;;;;;;;7.72;100.00;99819.25;5071050;28;20166;-70
2022/11/16 01:58:04;;;;;;;83.35;51.60;;;;;;;7.97;100.00;99804.41;5072384;28;20078;-70
2022/11/16 02:00:30;;;;;;;89.45;53.30;;;;;;;7.69;100.00;99777.13;5072279;28;20041;-71
2022/11/16 02:02:55;;;;;;;85.15;52.67;;;;;;;7.72;100.00;99802.38;5071954;28;20484;-70
2022/11/16 02:05:32;;;;;;;92.25;53.03;;;;;;;7.91;100.00;99807.91;5072526;28;20058;-70
2022/11/16 02:11:37;;;;;;;83.75;51.92;;;;;;;7.94;100.00;99799.41;5071835;28;20075;-70
2022/11/16 02:14:32;;;;;;;90.68;52.10;;;;;;;7.79;100.00;99755.84;5083527;28;20417;-70
2022/11/16 02:17:07;;;;;;;86.30;51.88;;;;;;;7.89;100.00;99785.16;5080720;28;20093;-70
2022/11/16 02:19:44;;;;;;;87.78;52.45;;;;;;;8.08;100.00;99800.78;5091951;28;20035;-70
2022/11/16 02:22:38;;;;;;;90.78;51.75;;;;;;;7.90;100.00;99766.56;5092123;28;20056;-70
2022/11/16 02:25:15;;;;;;;84.38;52.47;;;;;;;7.93;100.00;99788.47;5092211;28;20032;-71
2022/11/16 02:27:40;;;;;;;89.03;53.55;;;;;;;7.84;100.00;99783.59;5091886;28;20028;-71
2022/11/16 02:30:06;;;;;;;92.28;54.22;;;;;;;7.76;100.00;99773.59;5092003;28;20024;-70
2022/11/16 02:33:01;;;;;;;92.43;53.45;;;;;;;7.93;100.00;99768.22;5090795;28;20032;-71
2022/11/16 02:35:39;;;;;;;87.88;51.83;;;;;;;7.87;100.00;99773.41;5089633;28;20032;-71
2022/11/16 02:38:13;;;;;;;89.78;53.05;;;;;;;7.76;100.00;99772.78;5092317;28;20036;-71
2022/11/16 02:40:43;;;;;;;87.03;53.38;;;;;;;7.83;100.00;99767.56;5091515;28;20061;-71
2022/11/16 02:43:16;;;;;;;89.55;52.92;;;;;;;7.65;100.00;99757.81;5091379;28;20028;-71
2022/11/16 02:45:46;;;;;;;93.00;53.58;;;;;;;7.64;100.00;99745.22;5091775;28;20410;-71
2022/11/16 02:48:19;;;;;;;90.72;52.30;;;;;;;7.57;100.00;99764.72;5091684;28;20024;-71
2022/11/16 02:50:45;;;;;;;92.05;53.30;;;;;;;7.62;100.00;99767.16;5092250;28;20032;-70
2022/11/16 02:53:11;;;;;;;93.05;54.78;;;;;;;7.46;100.00;99722.81;5091299;28;20122;-71
2022/11/16 02:55:37;;;;;;;96.53;55.00;;;;;;;7.46;100.00;99733.75;5078706;28;20185;-70
2022/11/16 02:58:06;;;;;;;92.03;55.08;;;;;;;7.45;100.00;99754.84;5091543;28;20059;-70
2022/11/16 03:01:08;;;;;;;95.78;55.70;;;;;;;7.20;100.00;99756.16;5091438;28;20028;-70
2022/11/16 03:03:37;;;;;;;91.10;54.42;;;;;;;7.08;100.00;99703.31;5048537;28;20426;-70
2022/11/16 03:06:16;;;;;;;97.90;54.10;;;;;;;7.18;100.00;99747.78;5090048;28;20056;-71
2022/11/16 03:08:51;;;;;;;94.30;54.50;;;;;;;7.15;100.00;99767.22;5085010;28;20490;-69
2022/11/16 03:14:05;;;;;;;94.68;55.05;;;;;;;6.89;100.00;99724.72;5090931;28;20039;-70
2022/11/16 03:16:59;;;;;;;93.30;55.25;;;;;;;7.24;100.00;99751.88;5091390;28;20087;-70
2022/11/16 03:19:55;;;;;;;94.82;55.45;;;;;;;6.96;100.00;99765.00;5088763;28;20356;-69
2022/11/16 03:22:21;;;;;;;92.60;56.38;;;;;;;7.17;100.00;99760.44;5072944;28;20052;-70
2022/11/16 03:24:46;;;;;;;87.55;55.45;;;;;;;6.87;100.00;99724.72;5089496;28;20028;-70
2022/11/16 03:27:24;;;;;;;95.20;55.42;;;;;;;7.08;100.00;99732.78;5091208;28;20055;-70
2022/11/16 03:30:06;;;;;;;93.47;55.38;;;;;;;6.53;100.00;99716.06;5089055;28;20028;-70
2022/11/16 03:32:34;;;;;;;;;;;;;;;7.00;100.00;99753.16;5089712;28;20058;-70
2022/11/16 03:35:07;;;;;;;97.15;55.92;;;;;;;6.88;100.00;99745.78;5088927;28;19937;-70
2022/11/16 03:37:34;;;;;;;94.60;57.40;;;;;;;6.88;100.00;99750.81;5085867;28;20020;-70
2022/11/16 03:40:03;;;;;;;89.63;55.08;;;;;;;6.72;100.00;99716.56;5086370;28;20042;-70
2022/11/16 03:42:29;;;;;;;90.53;54.25;;;;;;;6.88;100.00;99750.81;5090446;28;20079;-75
2022/11/16 03:44:54;;;;;;;90.35;53.45;;;;;;;7.39;100.00;99733.91;5089515;28;20093;-70
2022/11/16 03:47:20;;;;;;;85.68;52.47;;;;;;;8.41;100.00;99708.94;5090031;28;20474;-69
2022/11/16 03:49:46;;;;;;;90.95;53.58;;;;;;;6.75;100.00;99712.31;5090220;28;20031;-69
2022/11/16 03:52:14;;;;;;;94.53;55.50;;;;;;;6.72;100.00;99736.78;5090400;28;20032;-69
2022/11/16 03:54:39;;;;;;;96.45;55.25;;;;;;;6.38;100.00;99703.66;5090651;28;20024;-69
2022/11/16 03:57:05;;;;;;;92.18;55.13;;;;;;;6.34;100.00;99679.31;5090453;28;20746;-70
2022/11/16 03:59:31;;;;;;;92.28;56.15;;;;;;;6.41;100.00;99708.69;5090010;28;20061;-70
2022/11/16 04:01:56;;;;;;;92.22;54.72;;;;;;;6.63;100.00;99735.25;5090231;28;20691;-70
2022/11/16 04:26:15;;;;;;;102.25;57.97;;;;;;;5.86;100.00;99688.44;5069276;28;20090;-68
2022/11/16 04:28:41;;;;;;;101.80;58.17;;;;;;;5.90;100.00;99659.81;5069331;28;20029;-69
2022/11/16 04:39:20;;;;;;;100.32;57.28;;;;;;;5.91;100.00;99695.97;5069526;28;20640;-69
2022/11/16 04:47:18;;;;;;;94.55;55.97;;;;;;;5.95;100.00;99652.19;5069320;28;20127;-68
2022/11/16 04:49:43;;;;;;;98.07;56.38;;;;;;;5.73;100.00;99644.06;5069243;28;20119;-70
2022/11/16 04:52:09;;;;;;;102.03;56.38;;;;;;;6.04;100.00;99689.91;5069069;28;20074;-68
2022/11/16 04:54:34;;;;;;;97.88;56.45;;;;;;;5.48;100.00;99649.44;5069475;28;20483;-69
2022/11/16 04:57:00;;;;;;;97.85;57.92;;;;;;;5.91;100.00;99668.22;5085363;28;20039;-70
2022/11/16 04:59:25;;;;;;;103.95;57.58;;;;;;;5.65;100.00;99630.72;5089200;28;20024;-68
2022/11/16 05:02:08;;;;;;;101.30;58.90;;;;;;;5.74;100.00;99677.69;5088945;28;20401;-69
2022/11/16 05:04:36;;;;;;;104.90;59.47;;;;;;;5.87;100.00;99669.13;5088496;28;20567;-68
2022/11/16 05:07:01;;;;;;;106.40;58.60;;;;;;;5.98;100.00;99673.16;5090817;28;20030;-67
2022/11/16 05:09:27;;;;;;;103.45;59.17;;;;;;;5.99;100.00;99663.91;5093322;28;20052;-66
2022/11/16 05:11:52;;;;;;;98.68;57.08;;;;;;;5.97;100.00;99636.19;5091648;28;20478;-69
2022/11/16 05:14:18;;;;;;;93.55;55.95;;;;;;;5.93;100.00;99648.84;5092750;28;20122;-68
2022/11/16 05:16:43;;;;;;;97.30;56.85;;;;;;;6.27;100.00;99675.25;5092853;28;20028;-68
2022/11/16 05:21:52;;;;;;;101.38;62.22;;;;;;;5.71;100.00;99675.19;5092718;28;20119;-68
2022/11/16 05:24:33;;;;;;;96.38;58.05;;;;;;;5.27;100.00;99675.75;5092405;28;20453;-68
2022/11/16 05:27:04;;;;;;;94.35;56.70;;;;;;;5.67;100.00;99701.28;5092554;28;20036;-67
2022/11/16 05:29:30;;;;;;;100.28;61.47;;;;;;;5.61;100.00;99674.47;5092015;28;20524;-68
2022/11/16 05:31:56;;;;;;;107.15;61.53;;;;;;;5.66;100.00;99695.44;5093053;28;20032;-68
2022/11/16 05:36:57;;;;;;;98.25;57.22;;;;;;;5.57;100.00;99694.69;4593332;23;10002177;-67
2022/11/16 05:39:23;;;;;;;90.20;55.75;;;;;;;5.59;100.00;99700.56;5010371;28;20068;-67
2022/11/16 05:41:49;;;;;;;86.68;54.10;;;;;;;6.73;100.00;99650.91;5008647;28;20050;-69
2022/11/16 05:44:16;;;;;;;90.38;53.20;;;;;;;6.95;100.00;99686.72;5011155;28;20041;-68
2022/11/16 05:46:42;;;;;;;95.80;52.13;;;;;;;5.81;100.00;99695.22;5012621;28;20113;-67
2022/11/16 05:49:08;;;;;;;90.40;53.13;;;;;;;5.93;100.00;99679.97;5011292;28;20353;-67
2022/11/16 05:51:34;;;;;;;88.65;54.33;;;;;;;5.63;100.00;99639.16;5012346;28;20473;-67
2022/11/16 05:54:00;;;;;;;89.43;55.08;;;;;;;5.30;100.00;99655.56;5009986;28;20056;-67
2022/11/16 05:56:26;;;;;;;91.82;54.28;;;;;;;4.91;100.00;99693.78;5010090;28;20034;-67
2022/11/16 05:58:51;;;;;;;90.40;53.55;;;;;;;5.29;100.00;99652.19;5010768;28;20026;-68
2022/11/16 06:01:16;;;;;;;93.13;54.80;;;;;;;5.57;100.00;99693.03;5010630;28;20109;-68
2022/11/16 06:03:42;;;;;;;95.15;56.15;;;;;;;5.84;100.00;99701.97;5010857;28;20032;-67
2022/11/16 06:06:08;;;;;;;95.45;54.78;;;;;;;5.76;100.00;99656.63;5010833;28;20022;-67
2022/11/16 06:08:33;;;;;;;94.05;54.22;;;;;;;6.01;100.00;99688.25;5011771;28;20495;-67
2022/11/16 06:11:03;;;;;;;92.72;55.63;;;;;;;5.79;100.00;99691.03;5012045;28;20483;-68
2022/11/16 06:13:30;;;;;;;98.25;54.80;;;;;;;5.91;100.00;99686.72;5012029;28;20423;-67
2022/11/16 06:15:55;;;;;;;96.78;53.85;;;;;;;5.06;100.00;99655.84;5012044;28;20112;-68
2022/11/16 06:18:20;;;;;;;100.63;54.72;;;;;;;5.94;100.00;99688.38;5012012;28;20030;-67
2022/11/16 06:20:47;;;;;;;103.15;57.08;;;;;;;6.09;100.00;99690.66;5011862;28;20034;-68
2022/11/16 06:23:12;;;;;;;109.47;57.70;;;;;;;5.78;100.00;99659.97;5012051;28;20022;-68
2022/11/16 06:25:38;;;;;;;122.57;63.03;;;;;;;5.51;100.00;99669.56;5010142;28;20120;-67
2022/11/16 06:28:04;;;;;;;124.93;61.38;;;;;;;5.97;100.00;99694.19;5010607;28;20431;-68
2022/11/16 06:30:30;;;;;;;139.05;58.88;;;;;;;5.96;100.00;99674.84;5011838;28;20026;-67
2022/11/16 06:32:55;;;;;;;135.43;59.13;;;;;;;6.11;100.00;99678.84;5010198;28;20034;-67
2022/11/16 06:35:21;;;;;;;137.27;60.10;;;;;;;6.17;100.00;99677.91;5011919;28;20025;-67
2022/11/16 06:37:46;;;;;;;157.15;62.63;;;;;;;5.80;100.00;99609.50;5011417;28;20489;-67
2022/11/16 06:40:12;;;;;;;140.68;62.03;;;;;;;6.04;100.00;99609.97;5009904;28;20120;-67
2022/11/16 06:42:37;;;;;;;160.43;67.45;;;;;;;6.25;100.00;99644.16;5011177;28;20030;-67
2022/11/16 06:45:03;;;;;;;163.73;63.60;;;;;;;6.16;100.00;99649.31;5010248;28;20037;-68
2022/11/16 06:47:28;;;;;;;167.38;65.78;;;;;;;6.31;100.00;99621.34;5011518;28;20033;-68
2022/11/16 06:49:54;;;;;;;172.27;66.43;;;;;;;6.00;100.00;99620.16;5011415;28;20091;-67
2022/11/16 06:52:19;;;;;;;163.85;64.40;;;;;;;6.60;100.00;99672.16;5011365;28;20030;-67
2022/11/16 06:54:45;;;;;;;160.80;64.03;;;;;;;6.57;100.00;99667.19;5009905;28;20025;-67
2022/11/16 06:57:10;;;;;;;151.60;62.83;;;;;;;6.35;100.00;99643.16;5009823;28;20087;-68
2022/11/16 06:59:35;;;;;;;145.25;61.45;;;;;;;6.23;100.00;99576.88;5011169;28;20404;-67
2022/11/16 07:02:01;;;;;;;176.55;68.88;;;;;;;6.32;100.00;99605.31;5011283;28;20029;-67
2022/11/16 07:04:26;;;;;;;171.18;68.00;;;;;;;6.66;100.00;99654.38;5011013;28;20420;-67
2022/11/16 07:06:52;;;;;;;171.95;68.18;;;;;;;6.13;100.00;99651.91;5010689;28;20030;-67
2022/11/16 07:09:17;;;;;;;145.75;62.25;;;;;;;6.77;100.00;99660.06;5011364;28;20029;-67
2022/11/16 07:11:43;;;;;;;148.68;61.92;;;;;;;6.53;100.00;99599.91;5010640;28;20037;-67
2022/11/16 07:14:08;;;;;;;138.07;60.22;;;;;;;6.60;100.00;99653.66;5010772;28;20087;-67
2022/11/16 07:16:35;;;;;;;123.50;57.70;;;;;;;6.94;100.00;99610.06;5010798;28;20026;-67
2022/11/16 07:19:00;;;;;;;120.13;57.65;;;;;;;6.89;100.00;99608.50;5010895;28;20033;-67
2022/11/16 07:21:27;;;;;;;140.85;60.38;;;;;;;6.77;100.00;99624.69;5010747;28;20416;-67
2022/11/16 07:23:53;;;;;;;134.77;62.20;;;;;;;7.38;100.00;99662.28;5010624;28;20538;-68
2022/11/16 07:26:18;;;;;;;133.70;62.58;;;;;;;7.34;100.00;99644.66;5010695;28;20492;-67
2022/11/16 07:28:44;;;;;;;135.60;58.45;;;;;;;6.55;100.00;99609.97;5009661;28;20058;-68
2022/11/16 07:31:11;;;;;;;127.13;59.10;;;;;;;7.04;100.00;99646.09;5010558;28;20033;-68
2022/11/16 07:33:37;;;;;;;119.57;58.72;;;;;;;6.70;100.00;99604.63;5009491;28;20034;-68
2022/11/16 07:36:11;;;;;;;123.60;57.88;;;;;;;6.86;100.00;99643.91;5009550;28;20121;-68
2022/11/16 07:38:37;;;;;;;107.95;53.63;;;;;;;6.70;100.00;99604.63;5010052;28;20056;-68
2022/11/16 07:41:06;;;;;;;126.20;54.45;;;;;;;6.46;100.00;99625.28;5010465;28;20034;-68
2022/11/16 07:43:35;;;;;;;111.80;56.55;;;;;;;7.01;100.00;99636.06;5010341;28;20061;-69
2022/11/16 07:46:04;;;;;;;105.35;51.95;;;;;;;7.29;100.00;99636.34;5010281;28;20026;-68
2022/11/16 07:48:33;;;;;;;118.10;50.85;;;;;;;6.78;100.00;99603.66;5010570;28;20044;-68
2022/11/16 07:51:05;;;;;;;106.90;51.40;;;;;;;7.08;100.00;99641.81;5010730;28;20045;-68
2022/11/16 07:53:31;;;;;;;;;;;;;;;7.02;100.00;99642.78;5009568;28;20133;-68
2022/11/16 07:55:56;;;;;;;124.25;52.72;;;;;;;6.79;100.00;99599.44;5010808;28;20427;-69
2022/11/16 07:58:23;;;;;;;106.13;51.17;;;;;;;6.51;100.00;99639.50;5010219;28;20128;-69
2022/11/16 08:00:48;;;;;;;111.80;54.80;;;;;;;6.42;100.00;99589.16;5009848;28;20036;-68
2022/11/16 08:03:14;;;;;;;103.45;51.30;;;;;;;6.64;100.00;99582.03;5010078;28;20349;-68
2022/11/16 08:05:39;;;;;;;185.30;91.10;;;;;;;6.45;100.00;99616.06;5010113;28;20125;-68
2022/11/16 08:08:05;;;;;;;102.18;52.80;;;;;;;6.71;100.00;99627.38;5008951;28;20498;-68
2022/11/16 08:10:31;;;;;;;97.32;50.97;;;;;;;6.97;100.00;99625.16;5008994;28;20036;-68
2022/11/16 08:12:57;;;;;;;103.65;52.42;;;;;;;6.97;100.00;99615.06;5010373;28;20181;-68
2022/11/16 08:15:23;;;;;;;106.32;51.20;;;;;;;6.96;100.00;99582.25;5010098;28;20467;-68
2022/11/16 08:17:48;;;;;;;103.82;51.08;;;;;;;6.49;100.00;99550.34;5009951;28;20034;-69
2022/11/16 08:20:15;;;;;;;115.00;49.83;;;;;;;6.23;100.00;99569.31;5010230;28;20084;-67
2022/11/16 08:22:41;;;;;;;110.72;52.45;;;;;;;6.22;100.00;99540.72;5010129;28;20021;-68
2022/11/16 08:25:07;;;;;;;113.53;54.08;;;;;;;6.12;100.00;99545.09;5009745;28;20433;-68
2022/11/16 08:27:32;;;;;;;111.15;59.90;;;;;;;6.58;100.00;99541.75;5008861;28;20073;-67
2022/11/16 08:29:58;;;;;;;136.23;74.55;;;;;;;6.53;100.00;99561.22;5009881;28;20488;-68
2022/11/16 08:32:23;;;;;;;176.10;108.03;;;;;;;6.96;100.00;99597.41;5009998;28;20034;-67
2022/11/16 08:34:49;;;;;;;101.05;49.40;;;;;;;6.47;100.00;99597.50;5009992;28;20026;-67
2022/11/16 08:37:14;;;;;;;106.38;52.35;;;;;;;7.04;100.00;99593.03;5008471;28;20056;-68
2022/11/16 08:39:40;;;;;;;95.35;50.10;;;;;;;7.19;100.00;99571.69;5009957;28;20034;-68
2022/11/16 08:42:05;;;;;;;102.60;55.40;;;;;;;7.31;100.00;99599.22;5011228;28;20403;-68
2022/11/16 08:44:31;;;;;;;93.25;48.45;;;;;;;6.53;100.00;99574.66;5013419;28;20481;-69
2022/11/16 08:46:56;;;;;;;91.93;47.65;;;;;;;6.95;100.00;99605.88;5013360;28;20060;-68
2022/11/16 08:49:22;;;;;;;113.22;72.78;;;;;;;7.58;100.00;99596.09;5013575;28;20025;-67
2022/11/16 08:51:47;;;;;;;93.15;56.60;;;;;;;7.43;100.00;99553.44;5013325;28;20033;-68
2022/11/16 08:54:12;;;;;;;82.88;46.88;;;;;;;7.49;100.00;99597.13;5013857;28;20044;-68
2022/11/16 08:56:38;;;;;;;84.32;49.33;;;;;;;7.95;100.00;99561.50;5012428;28;20026;-69
2022/11/16 08:59:03;;;;;;;88.63;49.15;;;;;;;7.61;100.00;99541.22;5013263;28;20033;-69
2022/11/16 09:01:30;;;;;;;89.57;50.63;;;;;;;7.72;100.00;99561.22;5013287;28;20135;-69
2022/11/16 09:03:56;;;;;;;86.93;52.15;;;;;;;7.81;100.00;99586.28;5013539;28;20034;-69
2022/11/16 09:06:22;;;;;;;83.68;47.38;;;;;;;7.32;100.00;99557.91;5013055;28;20099;-69
2022/11/16 09:08:48;;;;;;;85.30;49.80;;;;;;;7.82;100.00;99555.06;5013334;28;20053;-68
2022/11/16 09:11:17;;;;;;;87.43;52.47;;;;;;;8.47;100.00;99584.69;5013345;28;20171;-69
2022/11/16 09:13:44;;;;;;;79.10;48.35;;;;;;;7.27;100.00;99540.31;5011923;28;20034;-69
2022/11/16 09:16:10;;;;;;;82.10;47.83;;;;;;;7.90;100.00;99570.91;5013196;28;20109;-69
2022/11/16 09:18:36;;;;;;;80.10;48.95;;;;;;;8.15;100.00;99528.94;5013263;28;20080;-69
2022/11/16 09:21:02;;;;;;;84.10;51.40;;;;;;;7.94;100.00;99534.53;5013299;28;20650;-69
2022/11/16 09:23:27;;;;;;;85.90;51.55;;;;;;;8.41;100.00;99546.00;5012900;28;20080;-70
2022/11/16 09:25:54;;;;;;;85.90;53.17;;;;;;;8.03;100.00;99515.75;5013333;28;20026;-69
2022/11/16 09:28:21;;;;;;;76.55;48.00;;;;;;;8.08;100.00;99565.38;5013228;28;20460;-69
2022/11/16 09:30:49;;;;;;;74.72;46.95;;;;;;;7.80;100.00;99537.38;5012932;28;20026;-69
2022/11/16 09:33:14;;;;;;;73.15;46.47;;;;;;;8.15;100.00;99515.44;5011550;28;20041;-69
2022/11/16 09:35:39;;;;;;;71.03;45.97;;;;;;;8.89;100.00;99551.44;5012723;28;20038;-68
2022/11/16 09:38:06;;;;;;;74.45;48.30;;;;;;;8.52;100.00;99511.91;5012865;28;20423;-69
2022/11/16 09:40:41;;;;;;;69.60;47.05;;;;;;;8.80;100.00;99537.31;5012641;28;20056;-69
2022/11/16 09:43:22;;;;;;;75.13;46.88;;;;;;;8.82;100.00;99550.78;5012871;28;20140;-69
2022/11/16 09:46:13;;;;;;;73.50;46.92;;;;;;;8.76;100.00;99530.69;5010975;28;20603;-69
2022/11/16 09:48:40;;;;;;;54.83;35.03;;;;;;;8.76;100.00;99530.69;5012698;28;20026;-69
2022/11/16 09:51:11;;;;;;;71.88;45.63;;;;;;;9.04;100.00;99520.59;5012505;28;20034;-69
2022/11/16 09:53:57;;;;;;;69.03;46.27;;;;;;;8.75;100.00;99521.44;5012181;28;20057;-69
2022/11/16 09:56:25;;;;;;;72.78;48.13;;;;;;;8.27;100.00;99454.38;5012220;28;20084;-68
2022/11/16 09:59:09;;;;;;;74.78;48.80;;;;;;;9.21;100.00;99518.41;5011169;28;20030;-68
2022/11/16 10:01:46;;;;;;;78.07;50.33;;;;;;;9.61;100.00;99513.75;5012514;28;20033;-68
2022/11/16 10:04:39;;;;;;;72.15;46.95;;;;;;;9.39;100.00;99500.06;5011035;28;20041;-68
2022/11/16 10:07:26;;;;;;;78.40;50.67;;;;;;;9.03;100.00;99501.19;5011835;28;20026;-67
2022/11/16 10:09:54;;;;;;;77.13;48.38;;;;;;;9.48;100.00;99498.09;5010251;28;20484;-69
2022/11/16 10:12:33;;;;;;;68.63;46.40;;;;;;;8.67;100.00;99491.25;5011518;28;20124;-69
2022/11/16 10:15:17;;;;;;;138.25;90.00;;;;;;;9.50;100.00;99486.19;5011882;28;20026;-69
2022/11/16 10:18:12;;;;;;;177.02;120.50;;;;;;;9.65;100.00;99463.75;5011757;28;20512;-68
2022/11/16 10:21:13;;;;;;;77.10;52.33;;;;;;;9.11;100.00;99468.84;5011865;28;20145;-68
2022/11/16 10:24:24;;;;;;;201.57;148.43;;;;;;;9.66;100.00;99461.16;5010788;28;20045;-68
2022/11/16 10:27:28;;;;;;;91.47;60.97;;;;;;;9.55;100.00;99464.03;4990124;28;20034;-68
2022/11/16 10:30:09;;;;;;;71.57;48.20;;;;;;;10.08;100.00;99458.88;5011847;28;20276;-67
2022/11/16 10:32:44;;;;;;;72.13;49.25;;;;;;;10.00;100.00;99410.88;5011576;28;20038;-68
2022/11/16 10:35:09;;;;;;;78.63;52.58;;;;;;;9.94;100.00;99456.81;5012220;28;20029;-68
2022/11/16 10:37:39;;;;;;;73.60;49.42;;;;;;;9.79;100.00;99449.69;5011675;28;20060;-69
2022/11/16 10:40:16;;;;;;;79.15;54.10;;;;;;;10.62;100.00;99443.44;5011207;28;20571;-68
2022/11/16 10:42:45;;;;;;;73.55;51.08;;;;;;;10.31;100.00;99431.81;5003733;28;20041;-68
2022/11/16 10:45:23;;;;;;;87.55;53.15;;;;;;;11.21;100.00;99341.03;4992450;28;20485;-71
2022/11/16 10:48:11;;;;;;;72.00;48.42;;;;;;;11.14;100.00;99387.13;4992163;28;20122;-69
2022/11/16 10:50:39;;;;;;;65.65;45.33;;;;;;;11.01;100.00;99449.56;5009282;28;20092;-68
2022/11/16 10:53:05;;;;;;;64.47;46.28;;;;;;;10.21;100.00;99361.91;5010854;28;20108;-67
2022/11/16 10:55:31;;;;;;;71.10;51.17;;;;;;;10.64;100.00;99404.34;5010203;28;20121;-67
2022/11/16 10:58:00;;;;;;;69.28;47.50;;;;;;;11.41;100.00;99446.28;5011255;28;20480;-68
2022/11/16 11:00:47;;;;;;;67.93;46.65;;;;;;;11.20;100.00;99440.31;5010672;28;20511;-68
2022/11/16 11:03:13;;;;;;;72.90;51.42;;;;;;;10.70;100.00;99390.56;5010754;28;20026;-68
2022/11/16 11:05:52;;;;;;;65.47;48.40;;;;;;;11.28;100.00;99428.97;5009925;28;20163;-68
2022/11/16 11:08:29;;;;;;;68.40;47.92;;;;;;;11.01;100.00;99430.00;5009448;28;20492;-68
2022/11/16 11:11:00;;;;;;;65.63;47.22;;;;;;;11.30;100.00;99380.53;5010731;28;20026;-68
2022/11/16 11:13:26;;;;;;;68.77;47.97;;;;;;;11.57;100.00;99381.94;5011204;28;20041;-67
2022/11/16 11:16:15;;;;;;;68.10;48.90;;;;;;;12.04;100.00;99406.25;5011308;28;20579;-68
2022/11/16 11:18:40;;;;;;;70.65;50.78;;;;;;;12.05;100.00;99422.38;5009727;28;20415;-68
2022/11/16 11:21:18;;;;;;;70.82;52.50;;;;;;;11.82;100.00;99427.63;5009548;28;20033;-68
2022/11/16 11:23:55;;;;;;;60.20;46.00;;;;;;;11.78;100.00;99433.75;5010713;28;20021;-69
2022/11/16 11:26:37;;;;;;;62.08;46.58;;;;;;;11.80;100.00;99431.97;5010804;28;20026;-69
2022/11/16 11:29:28;;;;;;;53.92;42.33;;;;;;;11.70;100.00;99379.75;5010923;28;20030;-68
2022/11/16 11:31:58;;;;;;;59.55;44.83;;;;;;;11.93;100.00;99393.16;5010157;28;20037;-68
2022/11/16 11:34:27;;;;;;;63.33;46.83;;;;;;;12.43;100.00;99413.06;5010253;28;20084;-68
2022/11/16 11:36:59;;;;;;;61.40;46.20;;;;;;;12.37;100.00;99358.09;5010563;28;20037;-68
2022/11/16 11:39:28;;;;;;;57.67;43.45;;;;;;;12.88;100.00;99406.69;5009195;28;20400;-68
2022/11/16 11:42:04;;;;;;;61.72;46.42;;;;;;;12.65;100.00;99365.31;5010481;28;20103;-68
2022/11/16 11:44:53;;;;;;;67.55;48.33;;;;;;;12.29;100.00;99405.19;5009223;28;20149;-69
2022/11/16 11:47:27;;;;;;;65.03;48.28;;;;;;;12.61;100.00;99384.19;5010636;28;20033;-69
2022/11/16 11:50:01;;;;;;;61.53;46.00;;;;;;;12.29;100.00;99377.16;5009164;28;20030;-69
2022/11/16 11:52:38;;;;;;;70.40;51.25;;;;;;;12.51;100.00;99334.50;5010283;28;20084;-68
2022/11/16 11:55:06;;;;;;;57.08;42.80;;;;;;;13.03;100.00;99379.66;5010255;28;20033;-67
2022/11/16 11:57:38;;;;;;;56.88;43.75;;;;;;;13.04;100.00;99366.84;5010029;28;20096;-68
2022/11/16 12:00:05;;;;;;;61.70;45.30;;;;;;;13.25;100.00;99349.63;5010153;28;20052;-68
2022/11/16 12:02:48;;;;;;;57.72;44.03;;;;;;;13.01;100.00;99376.34;5010264;28;20030;-69
2022/11/16 12:05:59;;;;;;;90.80;60.15;;;;;;;13.26;100.00;99371.72;5009974;28;20030;-68
2022/11/16 12:08:46;;;;;;;65.90;48.55;;;;;;;12.99;100.00;99371.28;5006574;28;20108;-68
2022/11/16 12:11:49;;;;;;;74.57;54.17;;;;;;;13.45;100.00;99361.44;5010091;28;20022;-68
2022/11/16 12:14:38;;;;;;;59.92;44.92;;;;;;;13.69;100.00;99360.19;5010320;28;20034;-68
2022/11/16 12:17:26;;;;;;;78.38;56.05;;;;;;;14.15;100.00;99351.00;5013315;28;20076;-67